Whitemouth, Canada
Current Conditions -  °F | °C
As of 8:00 PM on Thursday 20 Nov 2014 (Local Time) from CYWG Reporting Station
Clear Clear  
Wind Chill: -11°   Ceiling: Unl
Heat Index:   Visibility: 15mi
Dew Point: -2°   Wind: 15mph
Humidity: 67%   Direction: 180°S
Pressure: 30.03"   Gusts: NA
Location:  49.95°N, 95.97°W
Report Text: CYWG 210200Z 18013KT 15SM SKC M14/M19 A3003 RMK SLP195
Loading
Personal Weather Stations






























Interactive Weather Map New forecast layout! Learn more

10-Day Weather Forecast

Advertisements
Track Severe Weather on mobile